createdAt,value
2022-12-03T00:00:54.837Z,8.93
2022-12-03T00:05:56.890Z,10.05
2022-12-03T00:10:58.878Z,10.48
2022-12-03T00:16:01.046Z,9.63
2022-12-03T00:21:03.130Z,10.73
2022-12-03T00:26:05.242Z,9.88
2022-12-03T00:31:07.329Z,11.02
2022-12-03T00:36:09.541Z,10.85
2022-12-03T00:41:12.057Z,10.57
2022-12-03T00:46:18.253Z,10.27
2022-12-03T00:51:23.003Z,11.27
2022-12-03T00:56:25.171Z,11.75
2022-12-03T01:01:27.263Z,9.80
2022-12-03T01:06:29.282Z,9.05
2022-12-03T01:11:41.471Z,10.05
2022-12-03T01:16:44.752Z,10.20
2022-12-03T01:21:49.808Z,8.90
2022-12-03T01:26:51.866Z,10.02
2022-12-03T01:32:12.573Z,9.65
2022-12-03T01:42:29.096Z,9.60
2022-12-03T01:47:36.804Z,8.85
2022-12-03T01:52:39.591Z,9.73
2022-12-03T01:57:47.834Z,9.15
2022-12-03T02:02:53.602Z,10.65
2022-12-03T02:07:56.496Z,11.55
2022-12-03T02:13:03.148Z,10.40
2022-12-03T02:18:05.538Z,10.88
2022-12-03T02:23:43.356Z,9.60
2022-12-03T02:28:45.351Z,9.65
2022-12-03T02:33:47.358Z,6.47
2022-12-03T02:38:50.831Z,8.90
2022-12-03T02:43:52.834Z,11.10
2022-12-03T02:48:54.927Z,8.98
2022-12-03T02:53:57.523Z,9.07
2022-12-03T02:59:03.320Z,6.88
2022-12-03T03:04:06.607Z,5.72
2022-12-03T03:09:08.608Z,9.10
2022-12-03T03:14:10.633Z,8.80
2022-12-03T03:19:12.687Z,9.48
2022-12-03T03:24:14.667Z,8.50
2022-12-03T03:29:17.365Z,8.88
2022-12-03T03:34:20.645Z,9.93
2022-12-03T03:39:22.689Z,8.18
2022-12-03T03:44:24.817Z,10.60
2022-12-03T03:49:27.631Z,8.25
2022-12-03T03:54:29.852Z,7.68
2022-12-03T03:59:32.302Z,8.23
2022-12-03T04:04:37.755Z,7.95
2022-12-03T04:09:39.865Z,9.45
2022-12-03T04:14:41.819Z,8.57
2022-12-03T04:19:43.778Z,6.28
2022-12-03T04:24:45.810Z,7.38
2022-12-03T04:29:47.842Z,10.02
2022-12-03T04:35:19.131Z,7.07
2022-12-03T04:40:39.965Z,9.73
2022-12-03T04:45:41.990Z,7.70
2022-12-03T04:50:44.112Z,6.57
2022-12-03T04:55:46.219Z,6.57
2022-12-03T05:00:48.301Z,9.98
2022-12-03T05:05:50.326Z,9.05
2022-12-03T05:10:52.392Z,6.93
2022-12-03T05:15:54.419Z,9.80
2022-12-03T05:20:56.477Z,8.93
2022-12-03T05:25:58.496Z,11.10
2022-12-03T05:31:00.499Z,10.18
2022-12-03T05:36:02.626Z,10.27
2022-12-03T05:41:25.132Z,10.52
2022-12-03T05:46:27.291Z,8.18
2022-12-03T05:51:30.250Z,8.50
2022-12-03T05:56:32.392Z,8.90
2022-12-03T06:01:34.651Z,8.80
2022-12-03T06:06:36.621Z,12.43
2022-12-03T06:11:40.068Z,6.85
2022-12-03T06:16:42.073Z,6.78
2022-12-03T06:21:44.282Z,9.18
2022-12-03T06:26:46.340Z,7.70
2022-12-03T06:31:49.330Z,9.43
2022-12-03T06:36:51.367Z,9.27
2022-12-03T06:41:53.475Z,8.75
2022-12-03T06:46:55.555Z,8.45
2022-12-03T06:51:57.551Z,8.00
2022-12-03T06:57:00.366Z,9.02
2022-12-03T07:02:02.408Z,10.82
2022-12-03T07:07:04.484Z,7.45
2022-12-03T07:12:07.656Z,10.32
2022-12-03T07:17:09.784Z,10.27
2022-12-03T07:22:12.188Z,9.80
2022-12-03T07:27:14.146Z,11.70
2022-12-03T07:32:16.194Z,9.23
2022-12-03T07:37:22.854Z,10.85
2022-12-03T07:42:25.568Z,8.20
2022-12-03T07:47:27.689Z,8.30
2022-12-03T07:52:30.132Z,10.80
2022-12-03T07:57:32.635Z,10.18
2022-12-03T08:02:34.729Z,8.88
2022-12-03T08:07:37.064Z,10.40
2022-12-03T08:12:45.803Z,10.85
2022-12-03T08:17:54.878Z,9.82
2022-12-03T08:22:57.612Z,9.88
2022-12-03T08:28:26.703Z,8.60
2022-12-03T08:33:39.090Z,10.38
2022-12-03T08:38:45.534Z,9.43
2022-12-03T08:43:47.797Z,11.18
2022-12-03T08:48:49.859Z,13.10
2022-12-03T08:54:03.507Z,11.82
2022-12-03T08:59:24.184Z,10.30
2022-12-03T09:04:36.180Z,12.03
2022-12-03T09:09:38.387Z,10.13
2022-12-03T09:14:40.352Z,11.95
2022-12-03T09:19:46.287Z,12.50
2022-12-03T09:24:48.607Z,11.82
2022-12-03T09:29:50.976Z,11.50
2022-12-03T09:34:55.197Z,11.52
2022-12-03T09:39:57.455Z,10.50
2022-12-03T09:44:59.776Z,11.77
2022-12-03T09:50:02.272Z,8.85
2022-12-03T09:55:13.593Z,7.53
2022-12-03T10:00:21.899Z,9.40
2022-12-03T10:05:24.340Z,6.55
2022-12-03T10:10:26.505Z,10.82
2022-12-03T10:15:33.195Z,10.60
2022-12-03T10:20:35.344Z,10.13
2022-12-03T10:25:51.566Z,11.18
2022-12-03T10:30:57.324Z,10.25
2022-12-03T10:36:21.720Z,10.52
2022-12-03T10:41:29.316Z,9.27
2022-12-03T10:46:31.384Z,9.10
2022-12-03T10:51:33.582Z,10.25
2022-12-03T10:56:36.153Z,9.30
2022-12-03T11:01:38.244Z,10.23
2022-12-03T11:06:40.353Z,12.00
2022-12-03T11:11:42.386Z,10.55
2022-12-03T11:16:47.121Z,9.90
2022-12-03T11:22:07.147Z,11.88
2022-12-03T11:27:09.142Z,11.77
2022-12-03T11:32:11.181Z,11.77
2022-12-03T11:37:21.752Z,13.15
2022-12-03T11:42:26.198Z,11.93
2022-12-03T11:47:29.173Z,11.90
2022-12-03T11:52:40.339Z,11.85
2022-12-03T11:57:43.493Z,13.02
2022-12-03T12:02:46.358Z,12.50
2022-12-03T12:07:49.489Z,11.40
2022-12-03T12:12:55.074Z,12.65
2022-12-03T12:17:57.460Z,13.40
2022-12-03T12:23:28.144Z,12.23
2022-12-03T12:28:30.124Z,12.00
2022-12-03T12:33:34.627Z,11.50
2022-12-03T12:38:36.719Z,12.10
2022-12-03T12:43:39.662Z,10.32
2022-12-03T12:48:41.664Z,13.32
2022-12-03T12:53:43.649Z,12.75
2022-12-03T12:58:46.062Z,9.38
2022-12-03T13:03:51.282Z,11.40
2022-12-03T13:08:54.449Z,12.07
2022-12-03T13:13:56.416Z,12.55
2022-12-03T13:18:59.960Z,11.73
2022-12-03T13:24:02.398Z,11.10
2022-12-03T13:29:14.752Z,10.15
2022-12-03T13:34:21.242Z,13.27
2022-12-03T13:39:28.980Z,12.88
2022-12-03T13:44:32.412Z,11.10
2022-12-03T13:49:34.907Z,6.82
2022-12-03T13:54:39.403Z,11.43
2022-12-03T13:59:41.514Z,10.95
2022-12-03T14:04:44.500Z,12.52
2022-12-03T14:09:46.621Z,12.15
2022-12-03T14:14:48.636Z,12.90
2022-12-03T14:19:50.734Z,13.65
2022-12-03T14:24:53.666Z,13.23
2022-12-03T14:29:56.035Z,12.88
2022-12-03T14:34:58.279Z,7.60
2022-12-03T14:40:00.317Z,10.68
2022-12-03T14:45:02.633Z,10.90
2022-12-03T14:50:06.052Z,15.57
2022-12-03T14:55:08.444Z,9.07
2022-12-03T15:00:12.779Z,14.60
2022-12-03T15:05:14.905Z,15.00
2022-12-03T15:10:16.989Z,14.27
2022-12-03T15:15:19.821Z,12.80
2022-12-03T15:20:21.966Z,13.32
2022-12-03T15:25:27.017Z,13.45
2022-12-03T15:30:29.583Z,8.13
2022-12-03T15:35:31.735Z,15.23
2022-12-03T15:40:35.476Z,13.90
2022-12-03T15:45:37.586Z,13.02
2022-12-03T15:50:40.368Z,13.60
2022-12-03T15:55:42.649Z,14.48
2022-12-03T16:00:44.701Z,14.52
2022-12-03T16:05:46.798Z,9.10
2022-12-03T16:10:49.863Z,14.25
2022-12-03T16:15:51.977Z,10.07
2022-12-03T16:20:54.136Z,14.73
2022-12-03T16:25:56.150Z,13.38
2022-12-03T16:30:58.213Z,13.82
2022-12-03T16:36:00.372Z,15.48
2022-12-03T16:41:02.500Z,13.25
2022-12-03T16:46:17.358Z,12.38
2022-12-03T16:51:19.787Z,11.23
2022-12-03T16:56:22.958Z,7.70
2022-12-03T17:01:25.102Z,6.00
2022-12-03T17:06:27.149Z,9.55
2022-12-03T17:11:29.382Z,8.00
2022-12-03T17:16:31.626Z,8.88
2022-12-03T17:21:35.230Z,6.22
2022-12-03T17:26:37.499Z,6.60
2022-12-03T17:31:42.256Z,6.55
2022-12-03T17:36:44.777Z,5.45
2022-12-03T17:41:46.814Z,4.97
2022-12-03T17:46:49.529Z,4.90
2022-12-03T17:51:51.673Z,4.90
2022-12-03T17:56:53.702Z,3.22
2022-12-03T18:01:55.762Z,5.63
2022-12-03T18:07:02.148Z,6.68
2022-12-03T18:12:04.748Z,5.53
2022-12-03T18:17:06.882Z,5.63
2022-12-03T18:22:09.284Z,6.07
2022-12-03T18:27:11.381Z,6.10
2022-12-03T18:32:27.809Z,4.85
2022-12-03T18:37:33.153Z,6.25
2022-12-03T18:42:35.208Z,6.15
2022-12-03T18:47:38.277Z,5.72
2022-12-03T18:52:40.583Z,6.35
2022-12-03T18:57:42.695Z,5.70
2022-12-03T19:03:02.291Z,4.63
2022-12-03T19:08:14.025Z,6.20
2022-12-03T19:13:16.208Z,5.53
2022-12-03T19:18:18.219Z,6.63
2022-12-03T19:23:20.528Z,6.68
2022-12-03T19:28:22.512Z,5.05
2022-12-03T19:33:28.572Z,6.55
2022-12-03T19:38:31.805Z,6.78
2022-12-03T19:43:36.601Z,7.07
2022-12-03T19:48:40.571Z,6.22
2022-12-03T19:53:43.243Z,5.32
2022-12-03T19:58:46.799Z,7.40
2022-12-03T20:03:51.127Z,7.40
2022-12-03T20:08:58.274Z,6.03
2022-12-03T20:14:07.704Z,7.53
2022-12-03T20:19:12.462Z,7.43
2022-12-03T20:24:16.497Z,6.85
2022-12-03T20:29:18.535Z,6.63
2022-12-03T20:34:20.575Z,7.60
2022-12-03T20:39:22.600Z,6.30
2022-12-03T20:44:24.568Z,7.90
2022-12-03T20:49:26.597Z,7.60
2022-12-03T20:54:28.565Z,7.00
2022-12-03T20:59:30.705Z,4.15
2022-12-03T21:04:33.792Z,8.25
2022-12-03T21:09:35.843Z,8.48
2022-12-03T21:14:37.859Z,7.68
2022-12-03T21:19:39.980Z,8.13
2022-12-03T21:24:42.973Z,7.50
2022-12-03T21:29:45.062Z,8.05
2022-12-03T21:34:47.080Z,5.35
2022-12-03T21:39:49.285Z,7.00
2022-12-03T21:44:51.485Z,8.05
2022-12-03T21:49:53.930Z,7.03
2022-12-03T21:54:56.115Z,7.55
2022-12-03T21:59:58.271Z,7.13
2022-12-03T22:05:00.303Z,8.73
2022-12-03T22:10:02.833Z,8.68
2022-12-03T22:15:05.908Z,7.38
2022-12-03T22:20:08.633Z,6.22
2022-12-03T22:25:10.722Z,8.68
2022-12-03T22:30:12.932Z,7.30
2022-12-03T22:35:15.027Z,7.90
2022-12-03T22:40:17.194Z,7.13
2022-12-03T22:45:19.286Z,9.00
2022-12-03T22:50:21.341Z,8.50
2022-12-03T22:55:23.508Z,6.05
2022-12-03T23:00:31.894Z,8.20
2022-12-03T23:05:37.065Z,9.60
2022-12-03T23:10:42.312Z,7.65
2022-12-03T23:15:46.513Z,8.85
2022-12-03T23:20:53.975Z,7.30
2022-12-03T23:26:02.039Z,8.60
2022-12-03T23:31:05.591Z,8.95
2022-12-03T23:36:08.060Z,8.23
2022-12-03T23:41:13.316Z,6.97
2022-12-03T23:46:19.512Z,7.53
2022-12-03T23:51:26.810Z,7.50
2022-12-03T23:56:30.779Z,7.57
